Time;durP1;ratioP1;P1;durP2;ratioP2;P2;SDS_P1;SDS_P2;PMS_P1;PMS_P2;Temp;Humidity;BMP_temperature;BMP_pressure;BME280_temperature;BME280_humidity;BME280_pressure;Samples;Min_cycle;Max_cycle;Signal;HPM_P1;HPM_P2
2023/03/06 00:02:17;;;;;;;43.03;29.73;;;3.30;99.90;;;;;;4936212;29;20501;-74
2023/03/06 00:04:43;;;;;;;43.47;27.95;;;3.30;99.90;;;;;;4935915;29;20040;-74
2023/03/06 00:07:09;;;;;;;50.63;29.55;;;3.30;99.90;;;;;;4929057;29;20079;-73
2023/03/06 00:09:34;;;;;;;46.40;27.98;;;3.20;99.90;;;;;;4923490;29;20095;-74
2023/03/06 00:12:00;;;;;;;44.63;28.67;;;3.20;99.90;;;;;;4937670;29;20035;-75
2023/03/06 00:14:26;;;;;;;46.63;29.05;;;3.10;99.90;;;;;;4937270;29;20481;-74
2023/03/06 00:16:55;;;;;;;41.95;26.67;;;3.10;99.90;;;;;;4937731;29;20031;-74
2023/03/06 00:19:22;;;;;;;42.72;24.88;;;3.10;99.90;;;;;;4936954;29;20020;-72
2023/03/06 00:21:48;;;;;;;47.60;26.65;;;3.10;99.90;;;;;;4937362;29;20127;-72
2023/03/06 00:24:14;;;;;;;42.13;26.80;;;3.10;99.90;;;;;;4937321;29;20028;-74
2023/03/06 00:26:40;;;;;;;59.17;36.67;;;3.10;99.90;;;;;;4937311;29;20038;-72
2023/03/06 00:29:09;;;;;;;51.03;29.58;;;3.10;99.90;;;;;;4937072;29;20059;-72
2023/03/06 00:31:36;;;;;;;53.65;31.30;;;3.10;99.90;;;;;;4936048;29;20035;-71
2023/03/06 00:34:03;;;;;;;55.42;32.78;;;3.00;99.90;;;;;;4937116;29;20023;-72
2023/03/06 00:36:28;;;;;;;60.85;33.60;;;2.90;99.90;;;;;;4937078;29;20032;-72
2023/03/06 00:38:54;;;;;;;63.85;34.20;;;2.90;99.90;;;;;;4935922;29;20032;-73
2023/03/06 00:41:20;;;;;;;57.97;35.63;;;2.80;99.90;;;;;;4935603;29;20063;-72
2023/03/06 00:43:46;;;;;;;56.25;32.42;;;2.80;99.90;;;;;;4919280;29;20039;-73
2023/03/06 00:46:12;;;;;;;45.13;26.55;;;2.80;99.90;;;;;;4918799;29;20028;-75
2023/03/06 00:48:38;;;;;;;52.63;28.95;;;2.80;99.90;;;;;;4935116;29;20031;-73
2023/03/06 00:51:05;;;;;;;57.78;31.58;;;2.80;99.90;;;;;;4935491;29;20075;-72
2023/03/06 00:53:31;;;;;;;57.80;31.70;;;2.80;99.90;;;;;;4936913;29;20032;-74
2023/03/06 00:55:57;;;;;;;60.17;29.50;;;2.80;99.90;;;;;;4936978;29;20472;-72
2023/03/06 00:58:23;;;;;;;56.80;31.77;;;2.80;99.90;;;;;;4919038;29;20039;-73
2023/03/06 01:00:49;;;;;;;55.25;30.17;;;2.80;99.90;;;;;;4936793;29;20052;-74
2023/03/06 01:03:14;;;;;;;51.03;28.35;;;2.80;99.90;;;;;;4935312;29;20477;-74
2023/03/06 01:05:40;;;;;;;50.42;27.38;;;2.70;99.90;;;;;;4919516;28;20396;-73
2023/03/06 01:08:07;;;;;;;43.45;25.17;;;2.70;99.90;;;;;;4935213;29;20035;-74
2023/03/06 01:10:37;;;;;;;48.50;27.48;;;2.70;99.90;;;;;;4936592;29;20032;-73
2023/03/06 01:13:03;;;;;;;45.50;26.48;;;2.60;99.90;;;;;;4936217;29;20031;-73
2023/03/06 01:15:29;;;;;;;48.45;27.52;;;2.60;99.90;;;;;;4919243;29;20032;-74
2023/03/06 01:17:54;;;;;;;48.95;28.67;;;2.60;99.90;;;;;;4935236;29;20028;-73
2023/03/06 01:20:20;;;;;;;45.13;27.30;;;2.60;99.90;;;;;;4936105;29;20043;-73
2023/03/06 01:22:46;;;;;;;34.13;21.58;;;2.60;99.90;;;;;;4939240;29;20051;-73
2023/03/06 01:25:12;;;;;;;38.78;21.85;;;2.60;99.90;;;;;;4935071;29;20055;-74
2023/03/06 01:27:38;;;;;;;31.80;18.48;;;2.60;99.90;;;;;;4919451;29;20028;-74
2023/03/06 01:30:05;;;;;;;31.42;18.08;;;2.60;99.90;;;;;;4935957;29;20355;-74
2023/03/06 01:32:30;;;;;;;32.03;18.00;;;2.70;99.90;;;;;;4919142;29;20115;-75
2023/03/06 01:34:56;;;;;;;29.98;19.30;;;2.70;99.90;;;;;;4944457;29;20142;-72
2023/03/06 01:37:22;;;;;;;32.28;18.67;;;2.70;99.90;;;;;;4936153;29;20016;-74
2023/03/06 01:39:49;;;;;;;34.75;17.95;;;2.70;99.90;;;;;;4935940;29;20035;-74
2023/03/06 01:42:15;;;;;;;34.47;19.13;;;2.70;99.90;;;;;;4935736;29;20441;-73
2023/03/06 01:45:14;;;;;;;27.02;17.25;;;2.80;99.90;;;;;;4934811;29;20047;-73
2023/03/06 01:47:40;;;;;;;32.08;18.05;;;2.80;99.90;;;;;;4877077;29;20038;-73
2023/03/06 01:50:11;;;;;;;31.20;18.95;;;2.80;99.90;;;;;;4880517;29;20036;-75
2023/03/06 01:52:49;;;;;;;32.00;18.50;;;2.80;99.90;;;;;;4861679;29;20428;-74
2023/03/06 01:55:20;;;;;;;31.60;19.20;;;2.80;99.90;;;;;;4876714;29;20033;-74
2023/03/06 01:57:51;;;;;;;33.35;19.45;;;2.80;99.90;;;;;;4876450;29;20085;-74
2023/03/06 02:00:21;;;;;;;34.78;20.08;;;2.80;99.90;;;;;;4860926;29;20466;-72
2023/03/06 02:02:52;;;;;;;32.75;19.73;;;2.80;99.90;;;;;;4861304;29;20033;-75
2023/03/06 02:05:19;;;;;;;37.85;20.77;;;2.80;99.90;;;;;;4861655;29;20145;-77
2023/03/06 02:07:45;;;;;;;35.53;21.10;;;2.80;99.90;;;;;;4876849;29;20558;-74
2023/03/06 02:10:15;;;;;;;37.38;22.58;;;2.80;99.90;;;;;;4877042;29;20495;-74
2023/03/06 02:12:43;;;;;;;38.15;22.15;;;2.70;99.90;;;;;;4876853;29;20070;-76
2023/03/06 02:15:14;;;;;;;37.53;23.98;;;2.70;99.90;;;;;;4861568;29;20021;-73
2023/03/06 02:17:42;;;;;;;43.45;24.48;;;2.70;99.90;;;;;;4876738;29;20135;-75
2023/03/06 02:20:26;;;;;;;40.10;24.90;;;2.60;99.90;;;;;;4876338;29;20040;-74
2023/03/06 02:23:06;;;;;;;;;;;2.70;99.90;;;;;;4890216;29;20044;-74
2023/03/06 02:25:41;;;;;;;41.33;23.90;;;2.60;99.90;;;;;;4934132;29;20443;-74
2023/03/06 02:28:11;;;;;;;37.05;23.38;;;2.70;99.90;;;;;;4935145;29;20138;-75
2023/03/06 02:30:38;;;;;;;37.13;22.90;;;2.70;99.90;;;;;;4917996;29;20043;-76
2023/03/06 02:33:04;;;;;;;42.83;23.00;;;2.60;99.90;;;;;;4935528;29;20119;-76
2023/03/06 02:35:37;;;;;;;40.22;22.73;;;2.60;99.90;;;;;;4935063;29;20035;-77
2023/03/06 02:38:08;;;;;;;42.47;23.75;;;2.60;99.90;;;;;;4934900;29;20037;-75
2023/03/06 02:40:34;;;;;;;39.10;23.23;;;2.60;99.90;;;;;;4933448;29;20622;-76
2023/03/06 02:43:00;;;;;;;37.83;22.55;;;2.50;99.90;;;;;;4933165;29;20497;-77
2023/03/06 02:45:44;;;;;;;37.33;22.65;;;2.60;99.90;;;;;;4917502;29;20042;-75
2023/03/06 02:48:11;;;;;;;43.90;27.73;;;2.60;99.90;;;;;;4935063;29;20031;-76
2023/03/06 02:50:38;;;;;;;54.40;29.80;;;2.50;99.90;;;;;;4934650;29;20027;-75
2023/03/06 02:53:05;;;;;;;48.70;27.20;;;2.50;99.90;;;;;;4917606;29;20028;-76
2023/03/06 02:55:32;;;;;;;36.58;21.08;;;2.50;99.90;;;;;;4917826;29;20077;-76
2023/03/06 02:57:58;;;;;;;35.05;20.95;;;2.50;99.90;;;;;;4933276;29;20034;-75
2023/03/06 03:00:25;;;;;;;33.15;20.45;;;2.40;99.90;;;;;;4917366;29;20028;-73
2023/03/06 03:02:51;;;;;;;39.47;23.98;;;2.40;99.90;;;;;;4941318;29;20055;-74
2023/03/06 03:05:17;;;;;;;33.65;20.48;;;2.30;99.90;;;;;;4940755;29;20023;-75
2023/03/06 03:07:48;;;;;;;38.45;22.25;;;2.30;99.90;;;;;;4913740;29;20508;-74
2023/03/06 03:10:15;;;;;;;39.33;22.40;;;2.30;99.90;;;;;;4915572;29;20443;-76
2023/03/06 03:12:41;;;;;;;41.20;22.05;;;2.30;99.90;;;;;;4898384;29;20089;-74
2023/03/06 03:15:08;;;;;;;42.15;22.33;;;2.30;99.90;;;;;;4914919;29;20500;-75
2023/03/06 03:17:35;;;;;;;33.97;20.45;;;2.30;99.90;;;;;;4915398;29;20577;-75
2023/03/06 03:20:03;;;;;;;31.48;19.60;;;2.30;99.90;;;;;;4898409;29;20051;-73
2023/03/06 03:22:29;;;;;;;33.30;19.52;;;2.30;99.90;;;;;;4892546;29;20537;-72
2023/03/06 03:24:55;;;;;;;43.83;19.73;;;2.30;99.90;;;;;;4915457;29;20119;-74
2023/03/06 03:27:21;;;;;;;32.60;18.77;;;2.30;99.90;;;;;;4915454;29;20374;-73
2023/03/06 03:29:47;;;;;;;36.47;18.98;;;2.30;99.90;;;;;;4913489;29;20492;-74
2023/03/06 03:32:13;;;;;;;34.95;20.50;;;2.30;99.90;;;;;;4914384;29;20051;-74
2023/03/06 03:34:41;;;;;;;33.47;20.33;;;2.30;99.90;;;;;;4914051;29;20057;-76
2023/03/06 03:37:07;;;;;;;33.22;19.40;;;2.30;99.90;;;;;;4913839;29;20028;-73
2023/03/06 03:39:33;;;;;;;30.20;18.23;;;2.30;99.90;;;;;;4915349;29;20028;-75
2023/03/06 03:41:58;;;;;;;30.98;18.45;;;2.30;99.90;;;;;;4915224;29;20138;-73
2023/03/06 03:44:24;;;;;;;33.75;20.27;;;2.30;99.90;;;;;;4898104;29;20021;-72
2023/03/06 03:46:51;;;;;;;31.10;18.67;;;2.30;99.90;;;;;;4898082;29;20130;-75
2023/03/06 03:49:20;;;;;;;41.40;19.15;;;2.30;99.90;;;;;;4914082;29;20026;-73
2023/03/06 03:51:47;;;;;;;31.95;19.58;;;2.20;99.90;;;;;;4913348;29;20056;-73
2023/03/06 03:54:12;;;;;;;31.17;19.10;;;2.20;99.90;;;;;;4915356;29;20439;-73
2023/03/06 03:56:43;;;;;;;30.58;17.27;;;2.20;99.90;;;;;;4913739;29;20569;-74
2023/03/06 03:59:14;;;;;;;29.77;17.77;;;2.20;99.90;;;;;;4914148;29;20117;-75
2023/03/06 04:02:03;;;;;;;31.95;15.48;;;2.30;99.90;;;;;;4913193;29;20139;-72
2023/03/06 04:04:32;;;;;;;25.58;15.77;;;2.30;99.90;;;;;;4897720;29;20028;-77
2023/03/06 04:06:59;;;;;;;29.42;17.48;;;2.30;99.90;;;;;;4925614;29;20540;-75
2023/03/06 04:09:25;;;;;;;33.50;18.35;;;2.30;99.90;;;;;;4917068;29;20028;-75
2023/03/06 04:11:51;;;;;;;28.42;16.50;;;2.30;99.90;;;;;;4916690;29;20394;-74
2023/03/06 04:14:17;;;;;;;30.38;15.65;;;2.30;99.90;;;;;;4916955;29;20067;-73
2023/03/06 04:16:42;;;;;;;30.10;16.23;;;2.30;99.90;;;;;;4931878;29;20067;-74
2023/03/06 04:19:08;;;;;;;31.85;17.63;;;2.20;99.90;;;;;;4935263;29;20388;-72
2023/03/06 04:21:34;;;;;;;30.88;17.15;;;2.30;99.90;;;;;;4936095;29;20035;-75
2023/03/06 04:24:01;;;;;;;32.40;17.38;;;2.20;99.90;;;;;;4920385;29;20024;-73
2023/03/06 04:26:26;;;;;;;31.27;17.85;;;2.20;99.90;;;;;;4920178;29;20079;-75
2023/03/06 04:28:54;;;;;;;26.30;16.50;;;2.20;99.90;;;;;;4937495;29;20028;-75
2023/03/06 04:31:20;;;;;;;32.78;16.23;;;2.20;99.90;;;;;;4935758;29;20050;-74
2023/03/06 04:33:46;;;;;;;36.67;16.15;;;2.20;99.90;;;;;;4937209;29;20031;-75
2023/03/06 04:36:33;;;;;;;30.85;17.85;;;2.20;99.90;;;;;;4937392;29;20034;-73
2023/03/06 04:39:12;;;;;;;32.75;17.17;;;2.20;99.90;;;;;;4935353;29;20059;-74
2023/03/06 04:41:39;;;;;;;28.90;16.23;;;2.30;99.90;;;;;;4936712;29;20572;-73
2023/03/06 04:44:05;;;;;;;26.08;16.25;;;2.20;99.90;;;;;;4937753;29;20080;-74
2023/03/06 04:46:31;;;;;;;28.20;17.20;;;2.20;99.90;;;;;;4936443;29;20043;-75
2023/03/06 04:48:57;;;;;;;27.77;15.13;;;2.20;99.90;;;;;;4919812;29;20072;-76
2023/03/06 04:51:23;;;;;;;28.33;17.20;;;2.10;99.90;;;;;;4936933;29;20532;-73
2023/03/06 04:53:49;;;;;;;26.23;16.55;;;2.20;99.90;;;;;;4937122;29;20390;-73
2023/03/06 04:56:15;;;;;;;26.38;15.85;;;2.10;99.90;;;;;;4936621;29;20474;-75
2023/03/06 04:58:42;;;;;;;28.90;15.65;;;2.20;99.90;;;;;;4936896;29;20038;-75
2023/03/06 05:01:08;;;;;;;30.90;16.90;;;2.10;99.90;;;;;;4936493;29;20466;-73
2023/03/06 05:03:34;;;;;;;30.13;18.17;;;2.10;99.90;;;;;;4935900;29;20510;-74
2023/03/06 05:06:00;;;;;;;36.83;20.50;;;2.10;99.90;;;;;;4936378;29;20054;-75
2023/03/06 05:08:26;;;;;;;35.30;21.10;;;2.10;99.90;;;;;;4936789;29;20032;-73
2023/03/06 05:10:57;;;;;;;38.38;22.00;;;2.10;99.90;;;;;;4936708;29;20036;-75
2023/03/06 05:13:24;;;;;;;40.35;22.30;;;2.10;99.90;;;;;;4936206;29;20105;-75
2023/03/06 05:15:51;;;;;;;41.25;23.02;;;2.00;99.90;;;;;;4936497;29;20027;-74
2023/03/06 05:18:17;;;;;;;41.08;24.45;;;2.10;99.90;;;;;;4935563;29;20036;-76
2023/03/06 05:20:43;;;;;;;46.45;22.38;;;2.10;99.90;;;;;;4926770;29;20423;-76
2023/03/06 05:23:09;;;;;;;43.13;22.80;;;2.10;99.90;;;;;;4935601;29;20393;-75
2023/03/06 05:25:39;;;;;;;41.25;24.92;;;2.10;99.90;;;;;;4936860;29;20043;-75
2023/03/06 05:28:05;;;;;;;41.75;24.13;;;2.10;99.90;;;;;;4935867;29;20533;-76
2023/03/06 05:30:31;;;;;;;40.10;22.33;;;2.20;99.90;;;;;;4934969;29;20035;-74
2023/03/06 05:32:58;;;;;;;35.17;21.02;;;2.20;99.90;;;;;;4936249;29;20415;-75
2023/03/06 05:35:24;;;;;;;34.70;20.50;;;2.50;99.90;;;;;;4936211;29;20481;-77
2023/03/06 05:37:50;;;;;;;36.75;22.40;;;3.00;99.90;;;;;;4936697;29;20035;-75
2023/03/06 05:40:17;;;;;;;38.30;22.13;;;3.20;99.90;;;;;;4935988;29;20039;-76
2023/03/06 05:42:43;;;;;;;37.45;20.13;;;3.70;99.90;;;;;;4936345;29;20180;-77
2023/03/06 05:45:10;;;;;;;53.53;24.75;;;4.00;99.90;;;;;;4935857;29;20047;-77
2023/03/06 05:47:35;;;;;;;47.30;24.63;;;4.00;99.90;;;;;;4936445;29;20090;-77
2023/03/06 05:50:02;;;;;;;43.83;24.85;;;3.90;99.90;;;;;;4935607;29;20036;-77
2023/03/06 05:52:28;;;;;;;40.67;25.55;;;4.50;99.90;;;;;;4936006;29;20403;-76
2023/03/06 05:54:54;;;;;;;55.60;28.27;;;4.80;99.90;;;;;;4935874;29;20035;-76
2023/03/06 05:57:21;;;;;;;54.95;30.92;;;5.00;99.90;;;;;;4935913;29;20046;-75
2023/03/06 05:59:48;;;;;;;90.97;56.50;;;5.20;99.90;;;;;;4935934;29;20031;-75
2023/03/06 06:02:15;;;;;;;68.57;40.28;;;5.20;99.90;;;;;;4934805;29;20067;-77
2023/03/06 06:04:40;;;;;;;52.53;31.63;;;5.60;99.90;;;;;;4935695;29;20089;-77
2023/03/06 06:07:06;;;;;;;55.88;29.95;;;5.60;99.90;;;;;;4935834;28;20554;-77
2023/03/06 06:09:32;;;;;;;43.05;25.40;;;5.50;99.90;;;;;;4935839;29;20087;-78
2023/03/06 06:12:02;;;;;;;37.33;23.17;;;5.70;99.90;;;;;;4935186;29;20047;-77
2023/03/06 06:14:29;;;;;;;36.80;21.30;;;5.80;99.90;;;;;;4935516;29;20034;-74
2023/03/06 06:16:55;;;;;;;36.90;23.55;;;5.80;99.90;;;;;;4918284;29;20043;-77
2023/03/06 06:19:22;;;;;;;48.72;27.42;;;6.10;99.90;;;;;;4935416;29;20107;-74
2023/03/06 06:21:52;;;;;;;52.22;28.70;;;6.00;99.90;;;;;;4935482;29;20086;-77
2023/03/06 06:24:21;;;;;;;50.10;29.73;;;6.10;99.90;;;;;;4935294;29;20114;-77
2023/03/06 06:26:50;;;;;;;54.83;30.33;;;5.60;99.90;;;;;;4935152;29;20521;-77
2023/03/06 06:29:16;;;;;;;37.53;22.60;;;5.10;99.90;;;;;;4922667;29;20091;-77
2023/03/06 06:31:42;;;;;;;35.90;22.63;;;4.90;99.90;;;;;;4935247;29;20127;-76
2023/03/06 06:34:10;;;;;;;38.92;21.30;;;4.80;99.90;;;;;;4934938;29;20058;-77
2023/03/06 06:36:36;;;;;;;34.50;19.88;;;4.70;99.90;;;;;;4935257;29;20087;-78
2023/03/06 06:39:03;;;;;;;34.45;20.30;;;4.60;99.90;;;;;;4935507;29;20521;-79
2023/03/06 06:41:29;;;;;;;39.90;22.98;;;4.70;99.90;;;;;;4934888;29;20047;-77
2023/03/06 06:43:55;;;;;;;37.58;23.10;;;4.70;99.90;;;;;;4934490;29;20050;-76
2023/03/06 06:46:21;;;;;;;36.08;21.48;;;4.70;99.90;;;;;;4934945;29;20032;-77
2023/03/06 06:48:48;;;;;;;45.15;23.13;;;4.70;99.90;;;;;;4935179;29;20095;-77
2023/03/06 06:51:15;;;;;;;42.88;26.23;;;4.70;99.90;;;;;;4935101;29;20035;-77
2023/03/06 06:53:42;;;;;;;41.22;24.67;;;4.70;99.90;;;;;;4934906;29;20024;-75
2023/03/06 06:56:07;;;;;;;36.67;23.13;;;4.60;99.90;;;;;;4935185;29;20122;-76
2023/03/06 06:58:33;;;;;;;39.70;22.73;;;4.80;99.90;;;;;;4934962;29;20103;-77
2023/03/06 07:01:07;;;;;;;41.22;22.80;;;4.90;99.90;;;;;;4931364;29;20023;-77
2023/03/06 07:03:33;;;;;;;41.50;23.55;;;5.00;99.90;;;;;;4935302;29;20107;-77
2023/03/06 07:05:58;;;;;;;41.58;24.95;;;5.20;99.90;;;;;;4934663;28;20047;-78
2023/03/06 07:08:24;;;;;;;41.00;23.92;;;5.40;99.90;;;;;;4935137;29;20381;-78
2023/03/06 07:10:51;;;;;;;35.47;20.55;;;5.50;99.90;;;;;;4934988;29;20032;-78
2023/03/06 07:13:17;;;;;;;35.92;21.80;;;5.70;99.90;;;;;;4933880;29;20529;-77
2023/03/06 07:15:43;;;;;;;35.85;21.88;;;5.70;99.90;;;;;;4931301;29;20031;-78
2023/03/06 07:18:09;;;;;;;34.30;20.30;;;5.80;99.90;;;;;;4926805;29;20143;-78
2023/03/06 07:20:35;;;;;;;32.92;20.27;;;6.00;99.90;;;;;;4934364;29;20031;-78
2023/03/06 07:23:01;;;;;;;37.33;21.42;;;6.20;99.90;;;;;;4934707;29;20028;-77
2023/03/06 07:25:26;;;;;;;34.47;20.45;;;6.30;99.90;;;;;;4934702;29;20745;-75
2023/03/06 07:27:53;;;;;;;37.85;21.30;;;6.40;99.90;;;;;;4934271;29;20028;-78
2023/03/06 07:30:23;;;;;;;36.42;21.08;;;6.50;99.90;;;;;;4933502;29;20075;-78
2023/03/06 07:32:52;;;;;;;31.45;19.27;;;6.50;99.90;;;;;;4934484;29;20027;-77
2023/03/06 07:35:18;;;;;;;34.15;19.40;;;6.50;99.90;;;;;;4934613;29;20450;-77
2023/03/06 07:37:44;;;;;;;37.25;20.30;;;6.50;99.90;;;;;;4934491;29;20072;-77
2023/03/06 07:40:11;;;;;;;37.75;22.17;;;6.30;99.90;;;;;;4933885;29;20054;-77
2023/03/06 07:42:37;;;;;;;34.40;20.08;;;6.40;99.90;;;;;;4934451;29;20028;-77
2023/03/06 07:45:11;;;;;;;33.28;19.83;;;6.40;99.90;;;;;;4917175;29;20031;-76
2023/03/06 07:47:38;;;;;;;33.60;19.50;;;6.40;99.90;;;;;;4934391;29;20063;-75
2023/03/06 07:50:06;;;;;;;46.35;26.88;;;6.40;99.90;;;;;;4924672;29;20046;-74
2023/03/06 07:52:35;;;;;;;37.90;23.70;;;6.50;99.90;;;;;;4913709;29;20035;-76
2023/03/06 07:55:00;;;;;;;34.88;19.38;;;6.80;99.90;;;;;;4899016;29;20046;-76
2023/03/06 07:57:26;;;;;;;34.47;21.40;;;6.90;99.90;;;;;;4916843;29;20474;-75
2023/03/06 07:59:52;;;;;;;39.80;19.85;;;7.10;99.90;;;;;;4922930;29;20036;-77
2023/03/06 08:02:18;;;;;;;36.20;20.83;;;7.20;99.90;;;;;;4924626;29;20036;-76
2023/03/06 08:04:50;;;;;;;34.78;19.77;;;7.20;99.90;;;;;;4924950;29;20059;-77
2023/03/06 08:07:16;;;;;;;39.10;22.35;;;7.30;99.90;;;;;;4920947;29;20123;-76
2023/03/06 08:09:41;;;;;;;31.38;19.55;;;7.40;99.90;;;;;;4923988;29;20104;-77
2023/03/06 08:12:07;;;;;;;33.15;21.77;;;7.50;99.90;;;;;;4937134;29;20067;-76
2023/03/06 08:14:34;;;;;;;38.88;21.38;;;7.80;99.90;;;;;;4937620;29;20028;-77
2023/03/06 08:16:59;;;;;;;32.67;17.50;;;8.10;99.90;;;;;;4937842;29;20377;-74
2023/03/06 08:19:25;;;;;;;32.08;17.50;;;8.30;99.90;;;;;;4936872;29;20024;-73
2023/03/06 08:21:51;;;;;;;32.30;18.15;;;8.50;99.60;;;;;;4939585;29;20113;-77
2023/03/06 08:24:17;;;;;;;32.13;19.60;;;8.60;99.90;;;;;;4937488;29;20083;-77
2023/03/06 08:26:44;;;;;;;33.35;18.58;;;8.60;98.50;;;;;;4937660;29;20028;-77
2023/03/06 08:29:10;;;;;;;31.10;18.67;;;8.80;98.80;;;;;;4937631;29;20064;-76
2023/03/06 08:31:44;;;;;;;30.02;17.58;;;8.60;98.10;;;;;;4937628;29;20032;-76
2023/03/06 08:34:13;;;;;;;35.58;20.50;;;8.60;96.70;;;;;;4937554;29;20035;-77
2023/03/06 08:36:39;;;;;;;33.65;18.90;;;8.60;97.20;;;;;;4937358;29;20028;-74
2023/03/06 08:39:05;;;;;;;35.90;19.95;;;8.80;99.10;;;;;;4937556;29;20027;-77
2023/03/06 08:41:32;;;;;;;29.67;18.23;;;8.80;98.60;;;;;;4937250;29;20039;-77
2023/03/06 08:43:58;;;;;;;44.22;19.27;;;8.80;96.60;;;;;;4937740;29;20441;-77
2023/03/06 08:46:26;;;;;;;31.33;17.48;;;9.00;96.90;;;;;;4937357;29;20086;-77
2023/03/06 08:48:52;;;;;;;32.45;18.65;;;8.90;95.70;;;;;;4937765;29;20417;-77
2023/03/06 08:51:19;;;;;;;31.70;18.15;;;9.20;96.90;;;;;;4937329;29;20023;-77
2023/03/06 08:53:45;;;;;;;32.13;18.10;;;9.40;95.80;;;;;;4937050;29;20043;-77
2023/03/06 08:56:26;;;;;;;34.63;20.02;;;9.70;95.30;;;;;;4937141;29;20028;-77
2023/03/06 08:58:54;;;;;;;36.20;18.58;;;9.90;96.20;;;;;;4937018;29;20503;-77
2023/03/06 09:01:25;;;;;;;31.70;19.08;;;9.90;95.10;;;;;;4937005;29;20036;-76
2023/03/06 09:03:58;;;;;;;30.77;18.33;;;9.80;93.70;;;;;;4937545;29;20030;-78
2023/03/06 09:06:26;;;;;;;32.25;17.13;;;9.70;94.20;;;;;;4935507;29;20048;-76
2023/03/06 09:08:53;;;;;;;35.28;18.02;;;9.80;94.30;;;;;;4936951;29;20063;-77
2023/03/06 09:11:20;;;;;;;27.63;17.50;;;9.90;94.80;;;;;;4936573;29;20024;-76
2023/03/06 09:13:46;;;;;;;33.47;18.42;;;9.70;93.60;;;;;;4937010;29;20498;-75
2023/03/06 09:16:12;;;;;;;29.67;17.23;;;9.70;94.40;;;;;;4936773;29;20110;-75
2023/03/06 09:18:38;;;;;;;37.25;18.85;;;9.70;94.50;;;;;;4936904;29;20028;-77
2023/03/06 09:21:05;;;;;;;32.28;16.10;;;9.80;94.30;;;;;;4936448;29;20055;-77
2023/03/06 09:23:31;;;;;;;28.00;15.95;;;9.80;93.20;;;;;;4936799;29;20075;-75
2023/03/06 09:25:58;;;;;;;27.10;13.73;;;9.90;93.50;;;;;;4919384;29;20039;-76
2023/03/06 09:28:24;;;;;;;32.20;15.27;;;10.10;92.50;;;;;;4936975;29;20054;-74
2023/03/06 09:30:51;;;;;;;23.52;12.52;;;10.20;93.00;;;;;;4936686;29;20469;-76
2023/03/06 09:33:17;;;;;;;24.25;12.15;;;10.10;92.00;;;;;;4936932;29;20171;-74
2023/03/06 09:35:52;;;;;;;22.48;12.60;;;10.20;92.10;;;;;;4936695;29;20036;-76
2023/03/06 09:38:19;;;;;;;24.00;11.45;;;10.30;92.70;;;;;;4936301;29;20043;-77
2023/03/06 09:40:57;;;;;;;24.17;13.90;;;10.50;92.10;;;;;;4936259;29;20031;-76
2023/03/06 09:43:45;;;;;;;26.35;14.20;;;10.70;91.90;;;;;;4936661;29;20027;-77
2023/03/06 09:46:29;;;;;;;29.02;15.43;;;11.00;92.10;;;;;;4935930;29;20183;-77
2023/03/06 09:49:29;;;;;;;25.17;15.40;;;11.30;91.80;;;;;;4936061;29;20115;-78
2023/03/06 09:52:09;;;;;;;24.05;13.88;;;11.50;91.30;;;;;;4936301;29;20047;-76
2023/03/06 09:54:59;;;;;;;22.83;13.30;;;11.30;91.00;;;;;;4936336;29;20024;-77
2023/03/06 09:57:30;;;;;;;25.77;15.45;;;11.30;91.30;;;;;;4925537;29;20453;-77
2023/03/06 10:00:03;;;;;;;23.15;13.00;;;11.30;90.80;;;;;;4935840;29;20111;-73
2023/03/06 10:02:43;;;;;;;28.00;14.20;;;11.40;91.60;;;;;;4935963;29;20050;-77
2023/03/06 10:05:34;;;;;;;25.83;14.70;;;11.50;91.20;;;;;;4935798;29;20050;-76
2023/03/06 10:08:16;;;;;;;24.63;14.43;;;11.70;91.00;;;;;;4918672;29;20082;-77
2023/03/06 10:11:02;;;;;;;26.88;14.48;;;11.60;90.50;;;;;;4934772;29;20031;-78
2023/03/06 10:13:42;;;;;;;27.63;15.82;;;11.50;91.60;;;;;;4935973;29;20027;-75
2023/03/06 10:16:29;;;;;;;26.38;14.27;;;11.60;91.00;;;;;;4935416;29;20079;-78
2023/03/06 10:19:00;;;;;;;26.02;13.40;;;11.70;91.20;;;;;;4918553;29;20462;-78
2023/03/06 10:21:44;;;;;;;25.65;12.82;;;11.90;91.40;;;;;;4935715;29;20044;-78
2023/03/06 10:24:21;;;;;;;26.55;14.55;;;12.00;90.30;;;;;;4935411;29;20042;-76
2023/03/06 10:26:58;;;;;;;21.52;10.98;;;12.20;90.30;;;;;;4935276;29;20350;-72
2023/03/06 10:29:39;;;;;;;19.48;11.90;;;12.40;89.50;;;;;;4935391;29;20032;-76
2023/03/06 10:32:24;;;;;;;25.33;12.27;;;12.60;90.20;;;;;;4935220;29;20482;-76
2023/03/06 10:34:50;;;;;;;24.60;13.48;;;12.60;89.80;;;;;;4924530;29;20636;-76
2023/03/06 10:37:21;;;;;;;29.48;15.00;;;12.70;90.70;;;;;;4935322;29;20103;-76
2023/03/06 10:40:04;;;;;;;27.85;13.93;;;12.80;89.80;;;;;;4935278;29;20375;-76
2023/03/06 10:42:30;;;;;;;;;;;12.80;88.80;;;;;;4935516;29;20418;-75
2023/03/06 10:45:16;;;;;;;25.85;12.70;;;12.70;87.00;;;;;;4935918;29;19913;-76
2023/03/06 10:47:43;;;;;;;21.52;11.82;;;13.00;88.80;;;;;;4923450;29;20024;-78
2023/03/06 10:50:24;;;;;;;23.67;11.77;;;12.90;85.50;;;;;;4935418;29;20374;-76
2023/03/06 10:53:00;;;;;;;26.08;13.70;;;12.80;87.30;;;;;;4935313;29;20482;-76
2023/03/06 10:55:32;;;;;;;23.58;13.00;;;12.70;88.90;;;;;;4935312;29;20429;-76
2023/03/06 10:58:17;;;;;;;23.85;11.80;;;12.60;88.70;;;;;;4935549;29;20055;-76
2023/03/06 11:00:42;;;;;;;22.90;11.32;;;12.50;88.20;;;;;;4934910;29;20055;-76
2023/03/06 11:03:23;;;;;;;20.52;11.63;;;12.60;88.90;;;;;;4944293;29;20032;-76
2023/03/06 11:06:33;;;;;;;24.55;12.60;;;12.80;89.10;;;;;;4919151;29;20055;-75
2023/03/06 11:09:21;;;;;;;19.63;12.60;;;13.00;90.10;;;;;;4914027;29;20091;-76
2023/03/06 11:11:50;;;;;;;24.20;12.00;;;13.10;88.20;;;;;;4934950;29;20117;-75
2023/03/06 11:14:21;;;;;;;26.70;12.50;;;13.10;90.60;;;;;;4934476;29;20393;-78
2023/03/06 11:16:52;;;;;;;22.13;11.90;;;13.10;88.70;;;;;;4934756;29;20046;-77
2023/03/06 11:19:25;;;;;;;22.63;11.25;;;13.00;89.90;;;;;;4934570;29;20077;-77
2023/03/06 11:22:03;;;;;;;20.73;10.60;;;13.20;90.40;;;;;;4934651;29;20044;-77
2023/03/06 11:24:39;;;;;;;21.05;10.68;;;13.40;87.70;;;;;;4934668;29;20336;-78
2023/03/06 11:27:35;;;;;;;21.13;11.38;;;13.40;89.60;;;;;;4934702;29;20024;-75
2023/03/06 11:30:04;;;;;;;21.23;11.48;;;13.30;89.30;;;;;;4923384;29;20042;-72
2023/03/06 11:32:44;;;;;;;24.67;10.20;;;13.40;90.00;;;;;;4934787;29;20024;-77
2023/03/06 11:35:15;;;;;;;25.17;12.23;;;13.30;86.50;;;;;;4934718;29;20031;-74
2023/03/06 11:38:10;;;;;;;22.38;11.52;;;13.30;89.80;;;;;;4934234;29;20022;-75
2023/03/06 11:40:50;;;;;;;22.42;10.88;;;13.40;87.20;;;;;;4934221;29;20126;-73
2023/03/06 11:43:28;;;;;;;18.48;10.45;;;13.60;87.00;;;;;;4934738;29;20039;-78
2023/03/06 11:46:21;;;;;;;24.40;12.50;;;13.60;86.20;;;;;;4934198;29;20042;-75
2023/03/06 11:49:07;;;;;;;25.05;11.43;;;13.60;87.10;;;;;;4856860;29;20131;-76
2023/03/06 11:51:39;;;;;;;23.75;12.27;;;13.70;88.60;;;;;;4857487;29;20033;-75
2023/03/06 11:54:11;;;;;;;23.50;13.48;;;13.70;87.90;;;;;;4857491;29;20037;-76
2023/03/06 11:56:47;;;;;;;23.90;12.85;;;13.80;88.90;;;;;;4857024;29;20041;-78
2023/03/06 11:59:33;;;;;;;24.23;11.85;;;13.90;88.10;;;;;;4857215;29;20556;-77
2023/03/06 12:02:28;;;;;;;19.90;11.48;;;14.10;86.70;;;;;;4857133;29;20407;-76
2023/03/06 12:05:20;;;;;;;22.58;11.95;;;14.20;87.90;;;;;;4784059;29;20047;-77
2023/03/06 12:08:11;;;;;;;18.75;12.30;;;14.10;82.70;;;;;;4784253;29;20126;-76
2023/03/06 12:10:44;;;;;;;20.60;10.13;;;14.30;85.30;;;;;;4784290;30;20047;-75
2023/03/06 12:13:30;;;;;;;18.17;10.73;;;14.30;86.20;;;;;;4784264;29;20136;-74
2023/03/06 12:16:14;;;;;;;18.52;10.13;;;14.50;85.80;;;;;;4784111;29;20051;-75
2023/03/06 12:18:55;;;;;;;19.45;9.48;;;14.50;85.60;;;;;;4784317;30;20043;-74
2023/03/06 12:21:45;;;;;;;19.67;10.27;;;14.50;86.00;;;;;;4783947;30;20501;-77
2023/03/06 12:24:21;;;;;;;19.05;8.63;;;14.50;86.10;;;;;;4784423;29;20039;-76
2023/03/06 12:26:49;;;;;;;19.15;10.48;;;14.50;83.30;;;;;;4843326;29;20037;-76
2023/03/06 12:29:43;;;;;;;16.30;9.40;;;14.50;84.00;;;;;;4857023;29;20117;-77
2023/03/06 12:32:39;;;;;;;23.27;10.10;;;14.50;81.60;;;;;;4857028;29;20080;-77
2023/03/06 12:35:23;;;;;;;23.60;12.02;;;14.50;84.60;;;;;;4857185;29;20049;-77
2023/03/06 12:38:19;;;;;;;19.98;9.95;;;14.60;87.30;;;;;;4856570;29;20036;-74
2023/03/06 12:41:00;;;;;;;21.98;9.80;;;14.50;84.50;;;;;;4860742;29;20037;-77
2023/03/06 12:43:37;;;;;;;20.75;10.90;;;14.40;87.00;;;;;;4930706;29;20039;-78
2023/03/06 12:46:20;;;;;;;22.20;10.85;;;14.60;85.60;;;;;;4937472;29;20028;-75
2023/03/06 12:49:00;;;;;;;16.65;8.73;;;14.80;84.50;;;;;;4937186;29;20036;-76
2023/03/06 12:51:26;;;;;;;17.08;9.48;;;14.60;84.20;;;;;;4937279;29;20028;-74
2023/03/06 12:53:53;;;;;;;24.17;9.82;;;14.50;83.80;;;;;;4937293;29;20038;-77